sensor_id;sensor_type;location;lat;lon;timestamp;P1;durP1;ratioP1;P2;durP2;ratioP2
17363;SDS011;8799;43.594;13.526;2023-06-22T00:04:20;5.87;;;4.70;;
17363;SDS011;8799;43.594;13.526;2023-06-22T00:06:47;9.10;;;5.00;;
17363;SDS011;8799;43.594;13.526;2023-06-22T00:09:15;7.00;;;5.17;;
17363;SDS011;8799;43.594;13.526;2023-06-22T00:11:43;12.07;;;5.80;;
17363;SDS011;8799;43.594;13.526;2023-06-22T00:14:12;8.33;;;5.43;;
17363;SDS011;8799;43.594;13.526;2023-06-22T00:16:41;10.60;;;5.80;;
17363;SDS011;8799;43.594;13.526;2023-06-22T00:19:09;9.93;;;5.83;;
17363;SDS011;8799;43.594;13.526;2023-06-22T00:21:38;8.20;;;5.27;;
17363;SDS011;8799;43.594;13.526;2023-06-22T00:24:06;8.20;;;4.87;;
17363;SDS011;8799;43.594;13.526;2023-06-22T00:26:34;8.90;;;5.77;;
17363;SDS011;8799;43.594;13.526;2023-06-22T00:29:02;7.43;;;5.20;;
17363;SDS011;8799;43.594;13.526;2023-06-22T00:31:31;8.27;;;5.73;;
17363;SDS011;8799;43.594;13.526;2023-06-22T00:33:59;11.83;;;5.87;;
17363;SDS011;8799;43.594;13.526;2023-06-22T00:36:26;9.30;;;5.87;;
17363;SDS011;8799;43.594;13.526;2023-06-22T00:38:54;9.23;;;6.10;;
17363;SDS011;8799;43.594;13.526;2023-06-22T00:41:22;9.57;;;6.03;;
17363;SDS011;8799;43.594;13.526;2023-06-22T00:43:53;8.17;;;5.63;;
17363;SDS011;8799;43.594;13.526;2023-06-22T00:46:21;9.00;;;5.73;;
17363;SDS011;8799;43.594;13.526;2023-06-22T00:48:51;10.87;;;5.60;;
17363;SDS011;8799;43.594;13.526;2023-06-22T00:51:22;10.83;;;5.67;;
17363;SDS011;8799;43.594;13.526;2023-06-22T00:53:50;7.90;;;5.80;;
17363;SDS011;8799;43.594;13.526;2023-06-22T00:56:18;9.23;;;5.50;;
17363;SDS011;8799;43.594;13.526;2023-06-22T00:58:50;7.87;;;5.67;;
17363;SDS011;8799;43.594;13.526;2023-06-22T01:01:19;9.93;;;5.53;;
17363;SDS011;8799;43.594;13.526;2023-06-22T01:03:51;9.00;;;6.30;;
17363;SDS011;8799;43.594;13.526;2023-06-22T01:06:23;9.23;;;6.13;;
17363;SDS011;8799;43.594;13.526;2023-06-22T01:08:59;9.37;;;5.73;;
17363;SDS011;8799;43.594;13.526;2023-06-22T01:11:36;9.03;;;5.73;;
17363;SDS011;8799;43.594;13.526;2023-06-22T01:14:10;9.80;;;6.00;;
17363;SDS011;8799;43.594;13.526;2023-06-22T01:16:43;8.90;;;5.70;;
17363;SDS011;8799;43.594;13.526;2023-06-22T01:19:18;7.87;;;5.80;;
17363;SDS011;8799;43.594;13.526;2023-06-22T01:21:55;10.63;;;5.93;;
17363;SDS011;8799;43.594;13.526;2023-06-22T01:24:26;9.57;;;6.13;;
17363;SDS011;8799;43.594;13.526;2023-06-22T01:26:59;11.50;;;6.27;;
17363;SDS011;8799;43.594;13.526;2023-06-22T01:29:37;8.90;;;6.03;;
17363;SDS011;8799;43.594;13.526;2023-06-22T01:32:06;10.60;;;6.23;;
17363;SDS011;8799;43.594;13.526;2023-06-22T01:34:35;8.27;;;5.67;;
17363;SDS011;8799;43.594;13.526;2023-06-22T01:37:05;8.37;;;5.93;;
17363;SDS011;8799;43.594;13.526;2023-06-22T01:39:34;8.07;;;5.90;;
17363;SDS011;8799;43.594;13.526;2023-06-22T01:42:03;8.60;;;6.20;;
17363;SDS011;8799;43.594;13.526;2023-06-22T01:44:31;8.10;;;6.30;;
17363;SDS011;8799;43.594;13.526;2023-06-22T01:47:02;9.60;;;6.30;;
17363;SDS011;8799;43.594;13.526;2023-06-22T01:49:30;9.03;;;6.20;;
17363;SDS011;8799;43.594;13.526;2023-06-22T01:51:58;11.47;;;6.30;;
17363;SDS011;8799;43.594;13.526;2023-06-22T01:54:26;10.23;;;6.67;;
17363;SDS011;8799;43.594;13.526;2023-06-22T01:56:54;11.13;;;6.67;;
17363;SDS011;8799;43.594;13.526;2023-06-22T01:59:24;10.37;;;5.73;;
17363;SDS011;8799;43.594;13.526;2023-06-22T02:01:57;8.20;;;5.73;;
17363;SDS011;8799;43.594;13.526;2023-06-22T02:04:32;8.70;;;5.73;;
17363;SDS011;8799;43.594;13.526;2023-06-22T02:07:05;9.53;;;5.70;;
17363;SDS011;8799;43.594;13.526;2023-06-22T02:09:39;9.10;;;5.53;;
17363;SDS011;8799;43.594;13.526;2023-06-22T02:12:10;6.97;;;4.93;;
17363;SDS011;8799;43.594;13.526;2023-06-22T02:14:40;9.43;;;6.20;;
17363;SDS011;8799;43.594;13.526;2023-06-22T02:17:08;15.13;;;6.30;;
17363;SDS011;8799;43.594;13.526;2023-06-22T02:19:38;9.03;;;5.50;;
17363;SDS011;8799;43.594;13.526;2023-06-22T02:22:08;7.53;;;5.20;;
17363;SDS011;8799;43.594;13.526;2023-06-22T02:24:38;7.87;;;5.40;;
17363;SDS011;8799;43.594;13.526;2023-06-22T02:27:06;8.80;;;6.20;;
17363;SDS011;8799;43.594;13.526;2023-06-22T02:29:34;10.70;;;5.60;;
17363;SDS011;8799;43.594;13.526;2023-06-22T02:32:01;8.27;;;5.93;;
17363;SDS011;8799;43.594;13.526;2023-06-22T02:34:29;9.73;;;6.10;;
17363;SDS011;8799;43.594;13.526;2023-06-22T02:37:00;8.13;;;6.00;;
17363;SDS011;8799;43.594;13.526;2023-06-22T02:39:28;8.10;;;5.70;;
17363;SDS011;8799;43.594;13.526;2023-06-22T02:41:55;9.57;;;6.30;;
17363;SDS011;8799;43.594;13.526;2023-06-22T02:44:23;7.53;;;5.33;;
17363;SDS011;8799;43.594;13.526;2023-06-22T02:46:51;8.77;;;5.30;;
17363;SDS011;8799;43.594;13.526;2023-06-22T02:49:19;9.47;;;6.13;;
17363;SDS011;8799;43.594;13.526;2023-06-22T02:51:48;9.40;;;5.60;;
17363;SDS011;8799;43.594;13.526;2023-06-22T02:54:17;10.27;;;5.37;;
17363;SDS011;8799;43.594;13.526;2023-06-22T02:56:45;11.50;;;5.77;;
17363;SDS011;8799;43.594;13.526;2023-06-22T02:59:13;7.83;;;5.47;;
17363;SDS011;8799;43.594;13.526;2023-06-22T03:01:41;9.10;;;5.80;;
17363;SDS011;8799;43.594;13.526;2023-06-22T03:04:09;9.53;;;5.73;;
17363;SDS011;8799;43.594;13.526;2023-06-22T03:06:37;9.47;;;5.40;;
17363;SDS011;8799;43.594;13.526;2023-06-22T03:09:06;8.10;;;5.83;;
17363;SDS011;8799;43.594;13.526;2023-06-22T03:11:36;9.57;;;6.30;;
17363;SDS011;8799;43.594;13.526;2023-06-22T03:14:04;8.67;;;5.60;;
17363;SDS011;8799;43.594;13.526;2023-06-22T03:16:32;8.97;;;6.27;;
17363;SDS011;8799;43.594;13.526;2023-06-22T03:18:59;8.63;;;5.43;;
17363;SDS011;8799;43.594;13.526;2023-06-22T03:21:27;9.07;;;5.87;;
17363;SDS011;8799;43.594;13.526;2023-06-22T03:23:55;8.60;;;5.50;;
17363;SDS011;8799;43.594;13.526;2023-06-22T03:26:23;8.70;;;5.77;;
17363;SDS011;8799;43.594;13.526;2023-06-22T03:28:53;9.37;;;5.67;;
17363;SDS011;8799;43.594;13.526;2023-06-22T03:31:21;8.40;;;5.17;;
17363;SDS011;8799;43.594;13.526;2023-06-22T03:33:49;6.83;;;5.17;;
17363;SDS011;8799;43.594;13.526;2023-06-22T03:36:17;9.17;;;5.70;;
17363;SDS011;8799;43.594;13.526;2023-06-22T03:38:45;9.73;;;6.00;;
17363;SDS011;8799;43.594;13.526;2023-06-22T03:41:14;9.67;;;6.43;;
17363;SDS011;8799;43.594;13.526;2023-06-22T03:43:42;7.43;;;5.27;;
17363;SDS011;8799;43.594;13.526;2023-06-22T03:46:11;9.40;;;6.27;;
17363;SDS011;8799;43.594;13.526;2023-06-22T03:48:39;8.23;;;5.60;;
17363;SDS011;8799;43.594;13.526;2023-06-22T03:51:07;8.47;;;5.30;;
17363;SDS011;8799;43.594;13.526;2023-06-22T03:53:34;9.33;;;6.17;;
17363;SDS011;8799;43.594;13.526;2023-06-22T03:56:02;8.40;;;5.70;;
17363;SDS011;8799;43.594;13.526;2023-06-22T03:58:30;9.57;;;5.10;;
17363;SDS011;8799;43.594;13.526;2023-06-22T04:00:58;7.67;;;5.53;;
17363;SDS011;8799;43.594;13.526;2023-06-22T04:03:33;9.67;;;5.90;;
17363;SDS011;8799;43.594;13.526;2023-06-22T04:06:01;8.30;;;5.60;;
17363;SDS011;8799;43.594;13.526;2023-06-22T04:08:29;9.17;;;5.27;;
17363;SDS011;8799;43.594;13.526;2023-06-22T04:10:56;7.97;;;5.17;;
17363;SDS011;8799;43.594;13.526;2023-06-22T04:13:24;8.23;;;5.60;;
17363;SDS011;8799;43.594;13.526;2023-06-22T04:15:52;7.07;;;4.97;;
17363;SDS011;8799;43.594;13.526;2023-06-22T04:18:19;9.70;;;6.13;;
17363;SDS011;8799;43.594;13.526;2023-06-22T04:20:49;9.03;;;5.60;;
17363;SDS011;8799;43.594;13.526;2023-06-22T04:23:16;8.40;;;5.30;;
17363;SDS011;8799;43.594;13.526;2023-06-22T04:25:44;9.07;;;5.47;;
17363;SDS011;8799;43.594;13.526;2023-06-22T04:28:12;7.80;;;5.40;;
17363;SDS011;8799;43.594;13.526;2023-06-22T04:30:40;10.97;;;5.80;;
17363;SDS011;8799;43.594;13.526;2023-06-22T04:33:11;8.60;;;5.60;;
17363;SDS011;8799;43.594;13.526;2023-06-22T04:35:39;10.73;;;6.00;;
17363;SDS011;8799;43.594;13.526;2023-06-22T04:38:11;9.83;;;5.33;;
17363;SDS011;8799;43.594;13.526;2023-06-22T04:40:40;7.10;;;4.90;;
17363;SDS011;8799;43.594;13.526;2023-06-22T04:43:08;9.67;;;5.30;;
17363;SDS011;8799;43.594;13.526;2023-06-22T04:45:35;9.47;;;5.30;;
17363;SDS011;8799;43.594;13.526;2023-06-22T04:48:04;13.57;;;5.83;;
17363;SDS011;8799;43.594;13.526;2023-06-22T04:50:32;9.13;;;6.17;;
17363;SDS011;8799;43.594;13.526;2023-06-22T04:53:00;11.10;;;6.30;;
17363;SDS011;8799;43.594;13.526;2023-06-22T04:55:32;10.37;;;5.77;;
17363;SDS011;8799;43.594;13.526;2023-06-22T04:57:59;9.07;;;5.83;;
17363;SDS011;8799;43.594;13.526;2023-06-22T05:00:30;9.67;;;6.10;;
17363;SDS011;8799;43.594;13.526;2023-06-22T05:03:01;10.30;;;5.77;;
17363;SDS011;8799;43.594;13.526;2023-06-22T05:05:31;12.03;;;6.30;;
17363;SDS011;8799;43.594;13.526;2023-06-22T05:08:00;8.77;;;6.20;;
17363;SDS011;8799;43.594;13.526;2023-06-22T05:10:28;12.33;;;5.63;;
17363;SDS011;8799;43.594;13.526;2023-06-22T05:12:57;8.57;;;5.60;;
17363;SDS011;8799;43.594;13.526;2023-06-22T05:15:25;8.27;;;5.50;;
17363;SDS011;8799;43.594;13.526;2023-06-22T05:17:55;7.80;;;5.20;;
17363;SDS011;8799;43.594;13.526;2023-06-22T05:20:23;8.53;;;5.93;;
17363;SDS011;8799;43.594;13.526;2023-06-22T05:22:51;8.57;;;5.57;;
17363;SDS011;8799;43.594;13.526;2023-06-22T05:25:19;8.03;;;5.67;;
17363;SDS011;8799;43.594;13.526;2023-06-22T05:27:47;8.50;;;5.60;;
17363;SDS011;8799;43.594;13.526;2023-06-22T05:30:18;8.63;;;6.03;;
17363;SDS011;8799;43.594;13.526;2023-06-22T05:32:46;15.00;;;6.20;;
17363;SDS011;8799;43.594;13.526;2023-06-22T05:35:14;9.43;;;5.80;;
17363;SDS011;8799;43.594;13.526;2023-06-22T05:37:42;8.97;;;6.00;;
17363;SDS011;8799;43.594;13.526;2023-06-22T05:40:10;14.90;;;6.20;;
17363;SDS011;8799;43.594;13.526;2023-06-22T05:42:39;11.13;;;6.20;;
17363;SDS011;8799;43.594;13.526;2023-06-22T05:45:07;9.63;;;5.87;;
17363;SDS011;8799;43.594;13.526;2023-06-22T05:47:37;12.17;;;5.60;;
17363;SDS011;8799;43.594;13.526;2023-06-22T05:50:06;7.50;;;5.30;;
17363;SDS011;8799;43.594;13.526;2023-06-22T05:52:34;9.87;;;6.10;;
17363;SDS011;8799;43.594;13.526;2023-06-22T05:55:02;7.63;;;4.80;;
17363;SDS011;8799;43.594;13.526;2023-06-22T05:57:30;6.73;;;5.03;;
17363;SDS011;8799;43.594;13.526;2023-06-22T05:59:57;10.10;;;5.47;;
17363;SDS011;8799;43.594;13.526;2023-06-22T06:02:25;7.23;;;5.13;;
17363;SDS011;8799;43.594;13.526;2023-06-22T06:04:54;11.57;;;5.17;;
17363;SDS011;8799;43.594;13.526;2023-06-22T06:07:22;9.63;;;5.40;;
17363;SDS011;8799;43.594;13.526;2023-06-22T06:09:50;9.27;;;5.50;;
17363;SDS011;8799;43.594;13.526;2023-06-22T06:12:17;10.17;;;5.00;;
17363;SDS011;8799;43.594;13.526;2023-06-22T06:14:45;9.37;;;5.43;;
17363;SDS011;8799;43.594;13.526;2023-06-22T06:17:13;11.63;;;5.37;;
17363;SDS011;8799;43.594;13.526;2023-06-22T06:19:41;11.53;;;5.13;;
17363;SDS011;8799;43.594;13.526;2023-06-22T06:22:10;9.50;;;5.30;;
17363;SDS011;8799;43.594;13.526;2023-06-22T06:24:37;8.60;;;4.73;;
17363;SDS011;8799;43.594;13.526;2023-06-22T06:27:05;9.40;;;5.03;;
17363;SDS011;8799;43.594;13.526;2023-06-22T06:29:33;9.60;;;5.10;;
17363;SDS011;8799;43.594;13.526;2023-06-22T06:32:00;8.60;;;5.10;;
17363;SDS011;8799;43.594;13.526;2023-06-22T06:34:28;9.07;;;5.17;;
17363;SDS011;8799;43.594;13.526;2023-06-22T06:36:56;9.70;;;4.93;;
17363;SDS011;8799;43.594;13.526;2023-06-22T06:39:25;12.13;;;4.90;;
17363;SDS011;8799;43.594;13.526;2023-06-22T06:41:53;8.37;;;5.10;;
17363;SDS011;8799;43.594;13.526;2023-06-22T06:44:21;10.63;;;4.93;;
17363;SDS011;8799;43.594;13.526;2023-06-22T06:46:49;7.90;;;5.10;;
17363;SDS011;8799;43.594;13.526;2023-06-22T06:49:19;7.77;;;5.47;;
17363;SDS011;8799;43.594;13.526;2023-06-22T06:51:47;8.77;;;5.20;;
17363;SDS011;8799;43.594;13.526;2023-06-22T06:54:15;8.73;;;5.00;;
17363;SDS011;8799;43.594;13.526;2023-06-22T06:56:47;12.77;;;4.90;;
17363;SDS011;8799;43.594;13.526;2023-06-22T06:59:15;8.13;;;4.73;;
17363;SDS011;8799;43.594;13.526;2023-06-22T07:01:43;9.97;;;5.03;;
17363;SDS011;8799;43.594;13.526;2023-06-22T07:04:10;10.93;;;5.77;;
17363;SDS011;8799;43.594;13.526;2023-06-22T07:06:38;10.60;;;5.23;;
17363;SDS011;8799;43.594;13.526;2023-06-22T07:09:06;12.93;;;5.10;;
17363;SDS011;8799;43.594;13.526;2023-06-22T07:11:35;11.13;;;5.10;;
17363;SDS011;8799;43.594;13.526;2023-06-22T07:14:05;9.63;;;5.37;;
17363;SDS011;8799;43.594;13.526;2023-06-22T07:16:33;11.10;;;5.57;;
17363;SDS011;8799;43.594;13.526;2023-06-22T07:19:00;12.40;;;5.30;;
17363;SDS011;8799;43.594;13.526;2023-06-22T07:21:28;13.27;;;5.17;;
17363;SDS011;8799;43.594;13.526;2023-06-22T07:23:55;11.23;;;4.60;;
17363;SDS011;8799;43.594;13.526;2023-06-22T07:26:24;8.23;;;4.50;;
17363;SDS011;8799;43.594;13.526;2023-06-22T07:28:51;11.30;;;4.50;;
17363;SDS011;8799;43.594;13.526;2023-06-22T07:31:21;14.10;;;4.50;;
17363;SDS011;8799;43.594;13.526;2023-06-22T07:33:50;8.53;;;4.53;;
17363;SDS011;8799;43.594;13.526;2023-06-22T07:36:18;10.87;;;5.03;;
17363;SDS011;8799;43.594;13.526;2023-06-22T07:38:45;11.63;;;6.50;;
17363;SDS011;8799;43.594;13.526;2023-06-22T07:41:13;9.23;;;5.37;;
17363;SDS011;8799;43.594;13.526;2023-06-22T07:43:44;12.73;;;5.87;;
17363;SDS011;8799;43.594;13.526;2023-06-22T07:46:16;15.90;;;5.80;;
17363;SDS011;8799;43.594;13.526;2023-06-22T07:48:45;8.87;;;5.43;;
17363;SDS011;8799;43.594;13.526;2023-06-22T07:51:14;10.37;;;6.07;;
17363;SDS011;8799;43.594;13.526;2023-06-22T07:53:42;11.40;;;5.63;;
17363;SDS011;8799;43.594;13.526;2023-06-22T07:56:10;11.27;;;5.40;;
17363;SDS011;8799;43.594;13.526;2023-06-22T07:58:38;10.87;;;5.40;;
17363;SDS011;8799;43.594;13.526;2023-06-22T08:01:06;8.63;;;5.20;;
17363;SDS011;8799;43.594;13.526;2023-06-22T08:03:34;10.73;;;5.13;;
17363;SDS011;8799;43.594;13.526;2023-06-22T08:06:04;8.33;;;4.50;;
17363;SDS011;8799;43.594;13.526;2023-06-22T08:08:33;6.80;;;4.37;;
17363;SDS011;8799;43.594;13.526;2023-06-22T08:11:01;7.23;;;4.40;;
17363;SDS011;8799;43.594;13.526;2023-06-22T08:13:29;7.27;;;4.67;;
17363;SDS011;8799;43.594;13.526;2023-06-22T08:15:57;7.23;;;4.23;;
17363;SDS011;8799;43.594;13.526;2023-06-22T08:18:25;8.60;;;4.70;;
17363;SDS011;8799;43.594;13.526;2023-06-22T08:20:53;7.97;;;4.37;;
17363;SDS011;8799;43.594;13.526;2023-06-22T08:23:22;8.10;;;4.27;;
17363;SDS011;8799;43.594;13.526;2023-06-22T08:25:50;8.07;;;4.23;;
17363;SDS011;8799;43.594;13.526;2023-06-22T08:28:17;11.83;;;4.30;;
17363;SDS011;8799;43.594;13.526;2023-06-22T08:30:45;8.23;;;4.53;;
17363;SDS011;8799;43.594;13.526;2023-06-22T08:33:13;6.53;;;4.23;;
17363;SDS011;8799;43.594;13.526;2023-06-22T08:35:41;6.57;;;4.20;;
17363;SDS011;8799;43.594;13.526;2023-06-22T08:38:09;7.30;;;4.00;;
17363;SDS011;8799;43.594;13.526;2023-06-22T08:40:42;10.53;;;4.83;;
17363;SDS011;8799;43.594;13.526;2023-06-22T08:43:10;5.90;;;4.07;;
17363;SDS011;8799;43.594;13.526;2023-06-22T08:45:38;10.77;;;4.60;;
17363;SDS011;8799;43.594;13.526;2023-06-22T08:48:06;7.60;;;4.30;;
17363;SDS011;8799;43.594;13.526;2023-06-22T08:50:34;8.80;;;4.60;;
17363;SDS011;8799;43.594;13.526;2023-06-22T08:53:01;6.60;;;4.33;;
17363;SDS011;8799;43.594;13.526;2023-06-22T08:55:29;11.27;;;4.90;;
17363;SDS011;8799;43.594;13.526;2023-06-22T08:57:59;7.63;;;4.77;;
17363;SDS011;8799;43.594;13.526;2023-06-22T09:00:28;7.00;;;4.67;;
17363;SDS011;8799;43.594;13.526;2023-06-22T09:02:57;8.90;;;4.57;;
17363;SDS011;8799;43.594;13.526;2023-06-22T09:05:30;9.77;;;4.93;;
17363;SDS011;8799;43.594;13.526;2023-06-22T09:07:57;8.07;;;4.67;;
17363;SDS011;8799;43.594;13.526;2023-06-22T09:10:25;19.27;;;5.13;;
17363;SDS011;8799;43.594;13.526;2023-06-22T09:12:53;9.27;;;5.23;;
17363;SDS011;8799;43.594;13.526;2023-06-22T09:15:22;6.80;;;4.27;;
17363;SDS011;8799;43.594;13.526;2023-06-22T09:17:50;7.60;;;4.30;;
17363;SDS011;8799;43.594;13.526;2023-06-22T09:20:19;6.37;;;4.43;;
17363;SDS011;8799;43.594;13.526;2023-06-22T09:22:47;10.57;;;4.57;;
17363;SDS011;8799;43.594;13.526;2023-06-22T09:25:15;7.60;;;5.43;;
17363;SDS011;8799;43.594;13.526;2023-06-22T09:27:46;9.60;;;5.13;;
17363;SDS011;8799;43.594;13.526;2023-06-22T09:30:14;11.10;;;4.63;;
17363;SDS011;8799;43.594;13.526;2023-06-22T09:32:44;10.77;;;4.67;;
17363;SDS011;8799;43.594;13.526;2023-06-22T09:35:12;13.27;;;4.83;;
17363;SDS011;8799;43.594;13.526;2023-06-22T09:37:40;6.80;;;4.43;;
17363;SDS011;8799;43.594;13.526;2023-06-22T09:40:07;8.37;;;5.07;;
17363;SDS011;8799;43.594;13.526;2023-06-22T09:42:36;8.73;;;5.00;;
17363;SDS011;8799;43.594;13.526;2023-06-22T09:45:04;9.43;;;5.07;;
17363;SDS011;8799;43.594;13.526;2023-06-22T09:47:32;7.57;;;4.90;;
17363;SDS011;8799;43.594;13.526;2023-06-22T09:50:06;7.97;;;4.50;;
17363;SDS011;8799;43.594;13.526;2023-06-22T09:52:34;7.30;;;4.93;;
17363;SDS011;8799;43.594;13.526;2023-06-22T09:55:03;9.27;;;4.83;;
17363;SDS011;8799;43.594;13.526;2023-06-22T09:57:31;8.73;;;5.13;;
17363;SDS011;8799;43.594;13.526;2023-06-22T09:59:58;10.00;;;4.40;;
17363;SDS011;8799;43.594;13.526;2023-06-22T10:02:26;7.27;;;4.60;;
17363;SDS011;8799;43.594;13.526;2023-06-22T10:04:54;9.80;;;5.13;;
17363;SDS011;8799;43.594;13.526;2023-06-22T10:07:24;10.37;;;4.90;;
17363;SDS011;8799;43.594;13.526;2023-06-22T10:09:52;12.60;;;5.30;;
17363;SDS011;8799;43.594;13.526;2023-06-22T10:12:20;7.80;;;4.97;;
17363;SDS011;8799;43.594;13.526;2023-06-22T10:14:48;9.47;;;5.00;;
17363;SDS011;8799;43.594;13.526;2023-06-22T10:17:15;8.27;;;5.50;;
17363;SDS011;8799;43.594;13.526;2023-06-22T10:19:47;10.37;;;5.50;;
17363;SDS011;8799;43.594;13.526;2023-06-22T10:22:15;8.13;;;5.73;;
17363;SDS011;8799;43.594;13.526;2023-06-22T10:24:44;7.57;;;5.13;;
17363;SDS011;8799;43.594;13.526;2023-06-22T10:27:12;8.13;;;5.10;;
17363;SDS011;8799;43.594;13.526;2023-06-22T10:29:41;7.33;;;4.80;;
17363;SDS011;8799;43.594;13.526;2023-06-22T10:32:09;9.57;;;4.67;;
17363;SDS011;8799;43.594;13.526;2023-06-22T10:34:36;9.23;;;5.27;;
17363;SDS011;8799;43.594;13.526;2023-06-22T10:37:03;12.00;;;5.00;;
17363;SDS011;8799;43.594;13.526;2023-06-22T10:39:32;10.53;;;4.83;;
17363;SDS011;8799;43.594;13.526;2023-06-22T10:42:01;9.60;;;4.70;;
17363;SDS011;8799;43.594;13.526;2023-06-22T10:44:30;6.97;;;4.87;;
17363;SDS011;8799;43.594;13.526;2023-06-22T10:46:58;7.17;;;4.27;;
17363;SDS011;8799;43.594;13.526;2023-06-22T10:49:26;7.03;;;4.37;;
17363;SDS011;8799;43.594;13.526;2023-06-22T10:51:54;7.70;;;4.73;;
17363;SDS011;8799;43.594;13.526;2023-06-22T10:54:21;8.60;;;4.50;;
17363;SDS011;8799;43.594;13.526;2023-06-22T10:56:49;7.63;;;4.17;;
17363;SDS011;8799;43.594;13.526;2023-06-22T10:59:19;9.80;;;4.50;;
17363;SDS011;8799;43.594;13.526;2023-06-22T11:01:48;9.13;;;4.37;;
17363;SDS011;8799;43.594;13.526;2023-06-22T11:04:16;9.63;;;4.87;;
17363;SDS011;8799;43.594;13.526;2023-06-22T11:06:44;10.87;;;4.47;;
17363;SDS011;8799;43.594;13.526;2023-06-22T11:09:12;8.23;;;4.37;;
17363;SDS011;8799;43.594;13.526;2023-06-22T11:11:43;7.93;;;5.00;;
17363;SDS011;8799;43.594;13.526;2023-06-22T11:14:11;7.13;;;4.60;;
17363;SDS011;8799;43.594;13.526;2023-06-22T11:16:41;9.00;;;4.67;;
17363;SDS011;8799;43.594;13.526;2023-06-22T11:19:12;7.63;;;4.97;;
17363;SDS011;8799;43.594;13.526;2023-06-22T11:21:40;7.13;;;4.77;;
17363;SDS011;8799;43.594;13.526;2023-06-22T11:24:08;8.07;;;4.70;;
17363;SDS011;8799;43.594;13.526;2023-06-22T11:29:18;6.63;;;4.43;;
17363;SDS011;8799;43.594;13.526;2023-06-22T11:31:47;11.10;;;4.90;;
17363;SDS011;8799;43.594;13.526;2023-06-22T11:34:15;12.23;;;4.97;;
17363;SDS011;8799;43.594;13.526;2023-06-22T11:36:44;9.30;;;4.97;;
17363;SDS011;8799;43.594;13.526;2023-06-22T11:39:13;7.00;;;4.73;;
17363;SDS011;8799;43.594;13.526;2023-06-22T11:41:41;10.43;;;4.90;;
17363;SDS011;8799;43.594;13.526;2023-06-22T11:44:08;6.60;;;4.70;;
17363;SDS011;8799;43.594;13.526;2023-06-22T11:46:40;10.03;;;4.73;;
17363;SDS011;8799;43.594;13.526;2023-06-22T11:49:09;7.10;;;4.43;;
17363;SDS011;8799;43.594;13.526;2023-06-22T11:51:42;10.20;;;3.83;;
17363;SDS011;8799;43.594;13.526;2023-06-22T11:54:09;6.33;;;4.50;;
17363;SDS011;8799;43.594;13.526;2023-06-22T11:56:37;7.57;;;4.73;;
17363;SDS011;8799;43.594;13.526;2023-06-22T11:59:05;6.80;;;4.37;;
17363;SDS011;8799;43.594;13.526;2023-06-22T12:01:33;6.50;;;4.57;;
17363;SDS011;8799;43.594;13.526;2023-06-22T12:04:01;6.63;;;4.63;;
17363;SDS011;8799;43.594;13.526;2023-06-22T12:06:32;9.20;;;4.80;;
17363;SDS011;8799;43.594;13.526;2023-06-22T12:09:01;8.13;;;4.73;;
17363;SDS011;8799;43.594;13.526;2023-06-22T12:11:30;8.37;;;4.50;;
17363;SDS011;8799;43.594;13.526;2023-06-22T12:13:58;9.93;;;5.07;;
17363;SDS011;8799;43.594;13.526;2023-06-22T12:16:28;9.10;;;4.43;;
17363;SDS011;8799;43.594;13.526;2023-06-22T12:18:57;5.90;;;4.10;;
17363;SDS011;8799;43.594;13.526;2023-06-22T12:21:24;6.77;;;4.43;;
17363;SDS011;8799;43.594;13.526;2023-06-22T12:23:54;12.07;;;4.27;;
17363;SDS011;8799;43.594;13.526;2023-06-22T12:26:22;8.60;;;4.80;;
17363;SDS011;8799;43.594;13.526;2023-06-22T12:28:49;7.30;;;5.00;;
17363;SDS011;8799;43.594;13.526;2023-06-22T12:31:17;7.07;;;4.53;;
17363;SDS011;8799;43.594;13.526;2023-06-22T12:33:45;7.37;;;4.70;;
17363;SDS011;8799;43.594;13.526;2023-06-22T12:36:13;6.77;;;4.90;;
17363;SDS011;8799;43.594;13.526;2023-06-22T12:38:41;8.17;;;4.30;;
17363;SDS011;8799;43.594;13.526;2023-06-22T12:41:11;9.03;;;4.90;;
17363;SDS011;8799;43.594;13.526;2023-06-22T12:43:40;7.37;;;4.70;;
17363;SDS011;8799;43.594;13.526;2023-06-22T12:46:08;9.10;;;4.13;;
17363;SDS011;8799;43.594;13.526;2023-06-22T12:48:41;6.07;;;4.20;;
17363;SDS011;8799;43.594;13.526;2023-06-22T12:51:09;11.83;;;4.27;;
17363;SDS011;8799;43.594;13.526;2023-06-22T12:53:37;7.60;;;4.73;;
17363;SDS011;8799;43.594;13.526;2023-06-22T12:56:05;8.87;;;5.00;;
17363;SDS011;8799;43.594;13.526;2023-06-22T12:58:35;9.10;;;4.60;;
17363;SDS011;8799;43.594;13.526;2023-06-22T13:01:03;7.47;;;4.37;;
17363;SDS011;8799;43.594;13.526;2023-06-22T13:03:31;8.50;;;5.10;;
17363;SDS011;8799;43.594;13.526;2023-06-22T13:05:59;10.47;;;4.87;;
17363;SDS011;8799;43.594;13.526;2023-06-22T13:08:28;9.70;;;4.50;;
17363;SDS011;8799;43.594;13.526;2023-06-22T13:10:56;6.33;;;4.47;;
17363;SDS011;8799;43.594;13.526;2023-06-22T13:13:29;8.07;;;4.60;;
17363;SDS011;8799;43.594;13.526;2023-06-22T13:15:58;7.47;;;4.30;;
17363;SDS011;8799;43.594;13.526;2023-06-22T13:18:27;12.30;;;4.90;;
17363;SDS011;8799;43.594;13.526;2023-06-22T13:20:55;7.17;;;3.77;;
17363;SDS011;8799;43.594;13.526;2023-06-22T13:23:23;8.87;;;4.93;;
17363;SDS011;8799;43.594;13.526;2023-06-22T13:25:51;6.50;;;4.37;;
17363;SDS011;8799;43.594;13.526;2023-06-22T13:28:19;7.17;;;4.60;;
17363;SDS011;8799;43.594;13.526;2023-06-22T13:30:47;12.00;;;4.33;;
17363;SDS011;8799;43.594;13.526;2023-06-22T13:33:16;8.23;;;5.00;;
17363;SDS011;8799;43.594;13.526;2023-06-22T13:35:44;6.77;;;4.30;;
17363;SDS011;8799;43.594;13.526;2023-06-22T13:38:12;7.13;;;4.60;;
17363;SDS011;8799;43.594;13.526;2023-06-22T13:40:40;6.40;;;4.33;;
17363;SDS011;8799;43.594;13.526;2023-06-22T13:43:08;7.43;;;4.17;;
17363;SDS011;8799;43.594;13.526;2023-06-22T13:45:37;8.10;;;4.70;;
17363;SDS011;8799;43.594;13.526;2023-06-22T13:48:05;10.10;;;4.90;;
17363;SDS011;8799;43.594;13.526;2023-06-22T13:50:36;12.60;;;4.53;;
17363;SDS011;8799;43.594;13.526;2023-06-22T13:53:03;10.60;;;4.70;;
17363;SDS011;8799;43.594;13.526;2023-06-22T13:55:31;7.50;;;4.00;;
17363;SDS011;8799;43.594;13.526;2023-06-22T13:57:59;9.43;;;4.50;;
17363;SDS011;8799;43.594;13.526;2023-06-22T14:00:27;8.00;;;4.57;;
17363;SDS011;8799;43.594;13.526;2023-06-22T14:02:55;10.77;;;4.80;;
17363;SDS011;8799;43.594;13.526;2023-06-22T14:05:24;9.50;;;4.63;;
17363;SDS011;8799;43.594;13.526;2023-06-22T14:07:54;8.83;;;4.73;;
17363;SDS011;8799;43.594;13.526;2023-06-22T14:10:22;8.73;;;4.30;;
17363;SDS011;8799;43.594;13.526;2023-06-22T14:12:50;11.60;;;4.73;;
17363;SDS011;8799;43.594;13.526;2023-06-22T14:15:19;9.80;;;4.67;;
17363;SDS011;8799;43.594;13.526;2023-06-22T14:17:47;7.73;;;4.70;;
17363;SDS011;8799;43.594;13.526;2023-06-22T14:20:15;8.17;;;4.60;;
17363;SDS011;8799;43.594;13.526;2023-06-22T14:22:44;8.97;;;4.40;;
17363;SDS011;8799;43.594;13.526;2023-06-22T14:25:14;11.47;;;4.40;;
17363;SDS011;8799;43.594;13.526;2023-06-22T14:27:42;6.77;;;4.70;;
17363;SDS011;8799;43.594;13.526;2023-06-22T14:30:09;6.87;;;4.30;;
17363;SDS011;8799;43.594;13.526;2023-06-22T14:32:38;8.07;;;4.80;;
17363;SDS011;8799;43.594;13.526;2023-06-22T14:35:06;12.70;;;4.70;;
17363;SDS011;8799;43.594;13.526;2023-06-22T14:37:35;7.43;;;4.33;;
17363;SDS011;8799;43.594;13.526;2023-06-22T14:40:04;8.07;;;4.77;;
17363;SDS011;8799;43.594;13.526;2023-06-22T14:42:34;10.07;;;4.63;;
17363;SDS011;8799;43.594;13.526;2023-06-22T14:45:02;7.63;;;4.67;;
17363;SDS011;8799;43.594;13.526;2023-06-22T14:47:30;8.97;;;4.20;;
17363;SDS011;8799;43.594;13.526;2023-06-22T14:50:02;7.67;;;4.17;;
17363;SDS011;8799;43.594;13.526;2023-06-22T14:52:31;10.97;;;4.83;;
17363;SDS011;8799;43.594;13.526;2023-06-22T14:54:58;10.23;;;4.83;;
17363;SDS011;8799;43.594;13.526;2023-06-22T14:57:27;6.67;;;4.40;;
17363;SDS011;8799;43.594;13.526;2023-06-22T14:59:56;9.77;;;4.80;;